Time;durP1;ratioP1;P1;durP2;ratioP2;P2;SDS_P1;SDS_P2;PMS_P1;PMS_P2;Temp;Humidity;BMP_temperature;BMP_pressure;BME280_temperature;BME280_humidity;BME280_pressure;Samples;Min_cycle;Max_cycle;Signal;HPM_P1;HPM_P2
2022/05/04 00:00:09;;;;;;;24.23;14.32;;;18.20;63.80;;;;;;5033028;28;20025;-67
2022/05/04 00:02:36;;;;;;;26.45;14.63;;;18.20;63.80;;;;;;5032880;28;20096;-67
2022/05/04 00:05:03;;;;;;;22.65;14.02;;;18.20;63.90;;;;;;5031690;28;20092;-67
2022/05/04 00:07:30;;;;;;;25.45;13.57;;;18.20;63.90;;;;;;5015741;28;20109;-68
2022/05/04 00:09:58;;;;;;;22.17;12.98;;;18.20;64.00;;;;;;5015529;28;20021;-68
2022/05/04 00:12:28;;;;;;;21.77;13.73;;;18.20;63.90;;;;;;5031591;28;20504;-68
2022/05/04 00:15:00;;;;;;;21.48;13.15;;;18.20;64.00;;;;;;5031561;28;20025;-68
2022/05/04 00:17:26;;;;;;;24.13;12.90;;;18.20;64.00;;;;;;5015148;28;20033;-67
2022/05/04 00:19:53;;;;;;;24.40;13.63;;;18.20;64.10;;;;;;5032538;28;20397;-67
2022/05/04 00:22:21;;;;;;;25.08;13.65;;;18.20;64.00;;;;;;5031422;28;20052;-67
2022/05/04 00:24:49;;;;;;;25.23;13.60;;;18.20;64.10;;;;;;5031576;28;20033;-67
2022/05/04 00:27:16;;;;;;;21.67;13.15;;;18.20;64.10;;;;;;5032499;28;20495;-67
2022/05/04 00:29:44;;;;;;;20.45;12.68;;;18.20;64.20;;;;;;5031513;28;20033;-67
2022/05/04 00:32:11;;;;;;;21.17;13.00;;;18.20;64.10;;;;;;5032456;28;20021;-67
2022/05/04 00:34:38;;;;;;;24.92;13.32;;;18.20;64.20;;;;;;5015256;28;20395;-67
2022/05/04 00:37:04;;;;;;;25.23;13.63;;;18.20;64.20;;;;;;5014928;28;20032;-67
2022/05/04 00:39:31;;;;;;;21.33;12.73;;;18.20;64.20;;;;;;5031392;28;20017;-68
2022/05/04 00:42:14;;;;;;;23.77;13.55;;;18.20;64.20;;;;;;5031312;28;20041;-67
2022/05/04 00:44:42;;;;;;;20.65;12.20;;;18.20;64.20;;;;;;5032514;28;20029;-67
2022/05/04 00:47:09;;;;;;;22.40;13.18;;;18.20;64.30;;;;;;5031145;28;20467;-67
2022/05/04 00:49:36;;;;;;;22.27;12.88;;;18.20;64.30;;;;;;5031216;28;20021;-68
2022/05/04 00:52:04;;;;;;;20.08;12.50;;;18.20;64.30;;;;;;5031344;28;20025;-67
2022/05/04 00:54:34;;;;;;;19.92;11.63;;;18.20;64.30;;;;;;5031155;28;20377;-67
2022/05/04 00:57:05;;;;;;;20.40;12.30;;;18.20;64.30;;;;;;5031170;28;20116;-67
2022/05/04 00:59:32;;;;;;;19.27;12.13;;;18.20;64.40;;;;;;5032312;28;20053;-67
2022/05/04 01:01:59;;;;;;;21.67;12.80;;;18.20;64.40;;;;;;5032129;28;20021;-67
2022/05/04 01:04:26;;;;;;;20.45;11.63;;;18.10;64.30;;;;;;5032144;28;20025;-67
2022/05/04 01:06:53;;;;;;;19.98;11.90;;;18.20;64.40;;;;;;5034537;28;20018;-67
2022/05/04 01:09:22;;;;;;;20.13;12.20;;;18.20;64.50;;;;;;5018589;28;20037;-67
2022/05/04 01:11:48;;;;;;;18.80;11.68;;;18.20;64.50;;;;;;5036250;28;20025;-68
2022/05/04 01:14:14;;;;;;;20.02;12.13;;;18.20;64.50;;;;;;5035104;28;20033;-68
2022/05/04 01:16:42;;;;;;;20.75;12.05;;;18.20;64.50;;;;;;5034721;28;20029;-68
2022/05/04 01:19:08;;;;;;;18.67;11.63;;;18.20;64.50;;;;;;5035927;28;20018;-68
2022/05/04 01:21:34;;;;;;;18.50;11.73;;;18.10;64.50;;;;;;5036028;28;20028;-67
2022/05/04 01:24:00;;;;;;;20.08;12.15;;;18.20;64.60;;;;;;5034975;28;20043;-67
2022/05/04 01:26:27;;;;;;;19.10;11.80;;;18.20;64.60;;;;;;5018093;28;20063;-68
2022/05/04 01:28:53;;;;;;;21.27;12.45;;;18.20;64.60;;;;;;5034693;28;20493;-67
2022/05/04 01:31:18;;;;;;;22.05;12.82;;;18.10;64.50;;;;;;5035404;28;20056;-67
2022/05/04 01:33:44;;;;;;;19.67;11.77;;;18.20;64.60;;;;;;5034577;28;20036;-67
2022/05/04 01:36:10;;;;;;;21.17;12.05;;;18.20;64.60;;;;;;5034452;28;20108;-68
2022/05/04 01:38:35;;;;;;;18.95;11.45;;;18.20;64.70;;;;;;5034943;28;20136;-67
2022/05/04 01:41:01;;;;;;;16.65;11.13;;;18.20;64.70;;;;;;5034469;28;20179;-67
2022/05/04 01:43:27;;;;;;;19.73;11.55;;;18.20;64.70;;;;;;5051269;28;20022;-67
2022/05/04 01:45:53;;;;;;;18.40;10.82;;;18.20;65.80;;;;;;5034223;28;20037;-67
2022/05/04 01:48:19;;;;;;;17.75;11.35;;;18.20;64.80;;;;;;5034549;28;20030;-67
2022/05/04 01:50:45;;;;;;;18.85;10.90;;;18.20;64.90;;;;;;5035777;28;20021;-67
2022/05/04 01:53:10;;;;;;;17.25;11.13;;;18.10;64.80;;;;;;5035568;28;20116;-67
2022/05/04 01:55:36;;;;;;;18.77;11.13;;;18.20;64.90;;;;;;5034204;28;20057;-67
2022/05/04 01:58:02;;;;;;;20.85;11.32;;;18.20;64.90;;;;;;5035418;28;20109;-67
2022/05/04 02:00:28;;;;;;;19.90;11.98;;;18.20;64.90;;;;;;5033872;28;20014;-67
2022/05/04 02:02:54;;;;;;;16.20;10.70;;;18.10;64.90;;;;;;5035221;28;20080;-68
2022/05/04 02:05:20;;;;;;;18.88;10.77;;;18.20;64.90;;;;;;5033931;28;20388;-68
2022/05/04 02:07:45;;;;;;;22.35;10.55;;;18.10;64.90;;;;;;5017726;28;20025;-67
2022/05/04 02:10:11;;;;;;;18.42;10.73;;;18.10;64.90;;;;;;5035114;28;20100;-67
2022/05/04 02:12:37;;;;;;;17.98;10.50;;;18.10;65.00;;;;;;5033728;28;20483;-67
2022/05/04 02:15:04;;;;;;;17.80;10.82;;;18.20;65.00;;;;;;5033705;28;20022;-67
2022/05/04 02:17:30;;;;;;;17.60;10.45;;;18.20;65.00;;;;;;5034081;28;20052;-67
2022/05/04 02:19:55;;;;;;;15.25;10.50;;;18.20;65.10;;;;;;5034882;28;20060;-67
2022/05/04 02:22:21;;;;;;;18.88;11.00;;;18.10;65.10;;;;;;5033534;28;20075;-67
2022/05/04 02:24:47;;;;;;;17.42;10.23;;;18.10;65.10;;;;;;5035049;28;20104;-67
2022/05/04 02:27:12;;;;;;;17.88;11.00;;;18.10;65.10;;;;;;5034817;28;20037;-67
2022/05/04 02:29:38;;;;;;;17.90;10.60;;;18.20;65.20;;;;;;5034541;28;20040;-67
2022/05/04 02:32:04;;;;;;;15.75;10.45;;;18.20;65.20;;;;;;5033754;28;20416;-67
2022/05/04 02:34:30;;;;;;;16.55;10.13;;;18.10;65.20;;;;;;5034602;28;20026;-67
2022/05/04 02:39:40;;;;;;;14.68;9.75;;;18.20;65.30;;;;;;5034752;28;20533;-67
2022/05/04 02:42:06;;;;;;;16.55;9.88;;;18.10;65.30;;;;;;5034134;28;20053;-67
2022/05/04 02:44:31;;;;;;;15.95;9.98;;;18.10;65.30;;;;;;5033353;28;20506;-67
2022/05/04 02:46:57;;;;;;;17.25;10.13;;;18.10;65.30;;;;;;5033459;28;20056;-68
2022/05/04 02:49:23;;;;;;;16.88;10.25;;;18.20;65.40;;;;;;5034518;28;20408;-67
2022/05/04 02:51:48;;;;;;;15.48;10.40;;;18.10;65.30;;;;;;5034480;28;20025;-67
2022/05/04 02:54:14;;;;;;;13.52;9.43;;;18.10;65.40;;;;;;5034458;28;20025;-67
2022/05/04 02:56:40;;;;;;;15.52;9.70;;;18.10;65.40;;;;;;5033946;28;20025;-67
2022/05/04 02:59:06;;;;;;;15.02;10.18;;;18.10;65.40;;;;;;5033181;28;20030;-67
2022/05/04 03:04:15;;;;;;;15.88;9.80;;;18.20;65.50;;;;;;5034177;28;20056;-67
2022/05/04 03:06:41;;;;;;;14.95;9.60;;;18.10;65.50;;;;;;5032880;28;20473;-67
2022/05/04 03:09:08;;;;;;;19.88;9.93;;;18.10;65.50;;;;;;5016507;28;20037;-67
2022/05/04 03:14:20;;;;;;;14.80;9.85;;;18.10;65.50;;;;;;5032915;28;20078;-68
2022/05/04 03:16:46;;;;;;;15.23;9.68;;;18.10;65.60;;;;;;5034004;28;20036;-67
2022/05/04 03:19:11;;;;;;;15.80;9.13;;;18.10;65.60;;;;;;5032925;28;20018;-67
2022/05/04 03:21:37;;;;;;;17.02;10.10;;;18.20;65.60;;;;;;5033806;28;20476;-67
2022/05/04 03:24:03;;;;;;;13.57;9.18;;;18.20;65.70;;;;;;5016324;28;20500;-67
2022/05/04 03:26:29;;;;;;;16.33;10.10;;;18.20;65.60;;;;;;5015843;28;20044;-67
2022/05/04 03:28:55;;;;;;;14.15;9.27;;;18.10;65.60;;;;;;5032548;28;20033;-67
2022/05/04 03:31:21;;;;;;;17.63;8.82;;;18.20;65.70;;;;;;5032469;28;20036;-67
2022/05/04 03:33:47;;;;;;;11.20;8.15;;;18.10;65.70;;;;;;5033585;28;20021;-67
2022/05/04 03:36:12;;;;;;;13.55;8.70;;;18.10;65.70;;;;;;5033374;28;20030;-67
2022/05/04 03:38:38;;;;;;;12.95;8.10;;;18.20;65.70;;;;;;5033420;28;20048;-67
2022/05/04 03:41:04;;;;;;;13.63;8.90;;;18.10;65.70;;;;;;5032052;28;20099;-67
2022/05/04 03:43:30;;;;;;;15.45;9.35;;;18.20;65.70;;;;;;5032366;28;20059;-67
2022/05/04 03:45:55;;;;;;;13.55;8.80;;;18.20;65.80;;;;;;5033581;28;20096;-67
2022/05/04 03:48:21;;;;;;;14.00;8.93;;;18.10;65.80;;;;;;5032132;28;20025;-67
2022/05/04 03:50:47;;;;;;;13.40;9.43;;;18.10;65.80;;;;;;5033217;28;20130;-67
2022/05/04 03:53:14;;;;;;;12.65;7.90;;;18.10;65.80;;;;;;5032029;28;20036;-67
2022/05/04 03:55:39;;;;;;;14.10;8.85;;;18.10;65.80;;;;;;5031632;28;20101;-67
2022/05/04 03:58:05;;;;;;;12.05;8.02;;;18.20;65.90;;;;;;5032246;28;20100;-67
2022/05/04 04:00:30;;;;;;;12.18;8.73;;;18.10;65.90;;;;;;5031815;28;20431;-67
2022/05/04 04:02:56;;;;;;;13.10;8.13;;;18.10;65.90;;;;;;5033147;28;20033;-67
2022/05/04 04:05:23;;;;;;;14.48;8.35;;;18.10;66.00;;;;;;5032888;28;20430;-67
2022/05/04 04:07:49;;;;;;;13.25;8.20;;;18.10;65.90;;;;;;5033086;28;20071;-67
2022/05/04 04:10:15;;;;;;;10.32;7.40;;;18.10;66.00;;;;;;5031630;28;20037;-67
2022/05/04 04:12:40;;;;;;;11.63;7.90;;;18.10;66.00;;;;;;5032771;28;20022;-67
2022/05/04 04:15:06;;;;;;;13.27;8.52;;;18.10;66.00;;;;;;5032935;28;20040;-67
2022/05/04 04:17:32;;;;;;;13.35;8.45;;;18.10;66.00;;;;;;5032737;28;20018;-67
2022/05/04 04:22:42;;;;;;;12.23;7.57;;;18.10;66.00;;;;;;5032520;28;20024;-67
2022/05/04 04:25:08;;;;;;;14.15;8.40;;;18.10;66.00;;;;;;5032408;28;20025;-67
2022/05/04 04:27:35;;;;;;;11.18;7.85;;;18.10;66.00;;;;;;5032770;28;20100;-67
2022/05/04 04:30:00;;;;;;;12.80;8.15;;;18.10;66.10;;;;;;5032725;28;20480;-67
2022/05/04 04:32:26;;;;;;;11.52;7.72;;;18.10;66.10;;;;;;5032369;28;20022;-67
2022/05/04 04:34:52;;;;;;;13.13;7.93;;;18.10;66.10;;;;;;5031350;28;20029;-67
2022/05/04 04:37:18;;;;;;;12.55;8.18;;;18.10;66.10;;;;;;5032500;28;20075;-67
2022/05/04 04:39:43;;;;;;;11.55;8.27;;;18.10;66.10;;;;;;5032223;28;20468;-67
2022/05/04 04:42:12;;;;;;;12.50;8.45;;;18.10;66.10;;;;;;5031991;28;20076;-67
2022/05/04 04:44:38;;;;;;;11.45;7.60;;;18.10;66.10;;;;;;5032508;28;20028;-67
2022/05/04 04:47:04;;;;;;;14.68;8.48;;;18.10;66.10;;;;;;5032341;28;20104;-67
2022/05/04 04:49:30;;;;;;;13.63;7.72;;;18.10;66.20;;;;;;5032452;28;20108;-67
2022/05/04 04:51:55;;;;;;;11.65;7.90;;;18.10;66.20;;;;;;5032415;28;20079;-67
2022/05/04 04:54:21;;;;;;;13.27;7.80;;;18.10;66.20;;;;;;5032221;28;20465;-68
2022/05/04 04:56:47;;;;;;;9.77;7.13;;;18.10;66.20;;;;;;5032247;28;20492;-67
2022/05/04 04:59:13;;;;;;;14.73;7.50;;;18.10;66.20;;;;;;5032858;28;20029;-67
2022/05/04 05:01:38;;;;;;;11.70;7.78;;;18.10;66.20;;;;;;5032164;28;20442;-67
2022/05/04 05:04:04;;;;;;;11.65;7.38;;;18.10;66.30;;;;;;5032445;28;20072;-67
2022/05/04 05:06:30;;;;;;;11.18;7.63;;;18.10;66.30;;;;;;5030929;28;20026;-67
2022/05/04 05:08:56;;;;;;;11.38;7.55;;;18.10;66.30;;;;;;5032045;28;20025;-67
2022/05/04 05:11:21;;;;;;;10.95;7.40;;;18.10;66.30;;;;;;5031056;28;20084;-67
2022/05/04 05:16:31;;;;;;;10.70;7.43;;;18.10;66.40;;;;;;5032128;28;20029;-67
2022/05/04 05:18:57;;;;;;;11.35;6.88;;;18.10;66.40;;;;;;5032036;28;20029;-67
2022/05/04 05:21:22;;;;;;;12.57;7.28;;;18.10;66.40;;;;;;5031523;28;20029;-67
2022/05/04 05:23:48;;;;;;;11.68;7.50;;;18.00;66.40;;;;;;5023654;28;20030;-68
2022/05/04 05:26:14;;;;;;;11.55;7.45;;;18.10;66.40;;;;;;5012760;28;20018;-68
2022/05/04 05:28:39;;;;;;;10.13;6.70;;;18.00;66.30;;;;;;5012825;28;20091;-68
2022/05/04 05:31:05;;;;;;;9.55;6.28;;;18.00;66.30;;;;;;5022866;28;20507;-68
2022/05/04 05:33:30;;;;;;;9.27;5.85;;;18.10;66.10;;;;;;5012239;28;20037;-68
2022/05/04 05:35:56;;;;;;;8.40;6.13;;;18.00;66.00;;;;;;5021911;28;20040;-68
2022/05/04 05:38:22;;;;;;;7.68;5.57;;;18.00;66.00;;;;;;5032042;28;20076;-68
2022/05/04 05:40:47;;;;;;;8.75;6.30;;;17.90;66.00;;;;;;5031607;28;20053;-67
2022/05/04 05:43:13;;;;;;;10.05;6.15;;;18.00;66.00;;;;;;5031793;28;20037;-67
2022/05/04 05:45:38;;;;;;;9.00;5.75;;;18.00;66.00;;;;;;5031868;28;20033;-67
2022/05/04 05:48:04;;;;;;;8.60;5.45;;;18.00;65.90;;;;;;5031911;28;20045;-67
2022/05/04 05:50:33;;;;;;;6.80;5.47;;;18.00;65.90;;;;;;5031607;28;20478;-67
2022/05/04 05:52:59;;;;;;;8.13;5.43;;;17.90;65.80;;;;;;5032408;28;20480;-67
2022/05/04 05:55:25;;;;;;;7.32;5.50;;;17.90;65.80;;;;;;5035444;28;20026;-68
2022/05/04 05:57:51;;;;;;;7.18;5.85;;;17.90;65.80;;;;;;5035207;28;20040;-67
2022/05/04 06:00:18;;;;;;;8.60;6.05;;;17.90;65.80;;;;;;5035295;28;20026;-67
2022/05/04 06:02:45;;;;;;;8.90;5.95;;;17.90;65.80;;;;;;5034126;28;20057;-68
2022/05/04 06:05:12;;;;;;;8.05;5.72;;;17.90;65.80;;;;;;5034049;28;20028;-67
2022/05/04 06:07:38;;;;;;;8.40;5.47;;;17.90;65.70;;;;;;5033980;28;20052;-67
2022/05/04 06:10:05;;;;;;;6.85;5.35;;;17.80;66.60;;;;;;5034042;28;20018;-67
2022/05/04 06:12:31;;;;;;;7.82;5.85;;;17.80;65.60;;;;;;5035166;28;20549;-67
2022/05/04 06:14:56;;;;;;;6.53;5.20;;;17.80;65.60;;;;;;5033951;28;20100;-67
2022/05/04 06:17:22;;;;;;;6.95;5.45;;;17.90;65.60;;;;;;5035019;28;20072;-67
2022/05/04 06:19:48;;;;;;;6.78;5.18;;;17.90;65.50;;;;;;5035899;28;20056;-67
2022/05/04 06:22:15;;;;;;;5.65;4.65;;;17.90;65.50;;;;;;5053260;28;20032;-67
2022/05/04 06:24:41;;;;;;;9.23;4.93;;;17.80;65.50;;;;;;5053348;28;20013;-67
2022/05/04 06:27:08;;;;;;;6.90;4.97;;;17.80;65.50;;;;;;5053025;28;20053;-67
2022/05/04 06:35:04;;;;;;;7.70;5.10;;;17.80;65.40;;;;;;5051453;28;20044;-65
2022/05/04 06:37:30;;;;;;;6.97;5.05;;;17.80;65.50;;;;;;5034905;28;20551;-66
2022/05/04 06:39:56;;;;;;;8.95;5.53;;;17.80;65.40;;;;;;5032365;28;20021;-66
2022/05/04 06:42:21;;;;;;;11.15;5.57;;;17.80;65.30;;;;;;5033853;28;20136;-66
2022/05/04 06:44:47;;;;;;;11.10;6.40;;;17.80;65.30;;;;;;5033999;28;20029;-66
2022/05/04 06:47:13;;;;;;;13.52;6.57;;;17.80;65.30;;;;;;5034529;28;20048;-66
2022/05/04 06:49:39;;;;;;;9.55;6.70;;;17.80;65.20;;;;;;5034186;28;20419;-66
2022/05/04 06:52:05;;;;;;;10.55;7.00;;;17.80;65.20;;;;;;5034552;28;20029;-66
2022/05/04 06:54:31;;;;;;;16.98;7.90;;;17.70;65.10;;;;;;5033257;28;20040;-66
2022/05/04 06:56:56;;;;;;;15.82;8.15;;;17.70;65.10;;;;;;5032052;28;20025;-66
2022/05/04 06:59:22;;;;;;;16.52;7.20;;;17.70;65.00;;;;;;5034276;28;20061;-66
2022/05/04 07:01:48;;;;;;;16.60;8.10;;;17.70;65.10;;;;;;5033878;28;20391;-66
2022/05/04 07:04:14;;;;;;;17.77;8.48;;;17.70;65.00;;;;;;5033539;28;20100;-66
2022/05/04 07:06:40;;;;;;;14.25;8.23;;;17.70;65.00;;;;;;5034142;28;20025;-66
2022/05/04 07:09:05;;;;;;;17.33;9.15;;;17.70;65.00;;;;;;5034166;28;20029;-66
2022/05/04 07:11:31;;;;;;;17.17;8.18;;;17.70;65.00;;;;;;5034105;28;20096;-66
2022/05/04 07:13:57;;;;;;;19.48;8.43;;;17.60;64.90;;;;;;5033997;28;20026;-66
2022/05/04 07:16:23;;;;;;;18.95;9.20;;;17.70;65.00;;;;;;5033932;28;20068;-66
2022/05/04 07:18:49;;;;;;;16.98;8.93;;;17.60;64.90;;;;;;5033718;28;20444;-66
2022/05/04 07:21:14;;;;;;;17.92;9.52;;;17.60;64.90;;;;;;5033802;28;20515;-66
2022/05/04 07:23:40;;;;;;;16.50;8.82;;;17.60;64.90;;;;;;5033642;28;20025;-66
2022/05/04 07:26:06;;;;;;;16.75;9.05;;;17.60;64.80;;;;;;5033870;28;20053;-66
2022/05/04 07:28:31;;;;;;;16.42;9.18;;;17.60;64.80;;;;;;5032693;28;20033;-66
2022/05/04 07:30:57;;;;;;;20.30;10.45;;;17.60;64.80;;;;;;5033435;28;20514;-66
2022/05/04 07:33:22;;;;;;;22.27;11.23;;;17.60;64.80;;;;;;5033548;28;20033;-66
2022/05/04 07:35:48;;;;;;;18.20;11.00;;;17.60;64.70;;;;;;5033113;28;20041;-66
2022/05/04 07:38:14;;;;;;;19.27;11.20;;;17.50;64.70;;;;;;5033707;28;20030;-66
2022/05/04 07:43:24;;;;;;;22.70;11.55;;;17.50;64.60;;;;;;5033500;28;20131;-66
2022/05/04 07:45:49;;;;;;;22.70;12.05;;;17.50;64.70;;;;;;5032151;28;20492;-66
2022/05/04 07:48:15;;;;;;;21.60;12.73;;;17.50;64.60;;;;;;5033219;28;20112;-66
2022/05/04 07:50:41;;;;;;;26.00;13.40;;;17.50;64.60;;;;;;5032256;28;20484;-66
2022/05/04 07:53:06;;;;;;;26.35;14.25;;;17.40;64.50;;;;;;5032143;28;20487;-66
2022/05/04 07:55:33;;;;;;;24.77;12.88;;;17.40;64.50;;;;;;5033118;28;20108;-66
2022/05/04 07:57:59;;;;;;;25.85;13.48;;;17.40;64.50;;;;;;5032002;28;20483;-66
2022/05/04 08:05:53;;;;;;;26.30;14.43;;;17.40;64.60;;;;;;5032863;28;20121;-66
2022/05/04 08:08:19;;;;;;;26.90;14.77;;;17.30;64.60;;;;;;5031839;28;20392;-66
2022/05/04 08:10:45;;;;;;;26.40;15.43;;;17.40;64.60;;;;;;5031680;28;20033;-66
2022/05/04 08:13:10;;;;;;;27.05;14.40;;;17.30;64.50;;;;;;5032852;28;20037;-66
2022/05/04 08:15:37;;;;;;;31.40;15.80;;;17.30;64.50;;;;;;5014116;28;20272;-66
2022/05/04 08:18:03;;;;;;;31.83;16.85;;;17.30;64.50;;;;;;5032756;28;20044;-66
2022/05/04 08:20:29;;;;;;;32.15;16.60;;;17.30;64.50;;;;;;5031749;28;20025;-66
2022/05/04 08:22:55;;;;;;;28.33;16.02;;;17.30;64.60;;;;;;5031480;28;20049;-66
2022/05/04 08:25:21;;;;;;;30.73;16.70;;;17.30;64.60;;;;;;5032934;28;20025;-66
2022/05/04 08:27:46;;;;;;;29.92;15.73;;;17.30;64.60;;;;;;5032579;28;20080;-66
2022/05/04 08:30:12;;;;;;;29.42;16.08;;;17.30;64.60;;;;;;5032514;28;20438;-66
2022/05/04 08:32:38;;;;;;;29.95;16.02;;;17.30;64.60;;;;;;5032586;28;20033;-66
2022/05/04 08:35:04;;;;;;;31.38;17.23;;;17.30;64.60;;;;;;5032664;28;20017;-66
2022/05/04 08:37:30;;;;;;;33.90;17.40;;;17.30;64.60;;;;;;5031207;28;20030;-66
2022/05/04 08:39:56;;;;;;;31.60;16.88;;;17.30;64.60;;;;;;5032575;28;20071;-66
2022/05/04 08:42:21;;;;;;;28.08;16.52;;;17.30;64.60;;;;;;5031221;28;20124;-66
2022/05/04 08:44:48;;;;;;;33.35;17.42;;;17.30;64.70;;;;;;5032106;28;20117;-66
2022/05/04 08:47:14;;;;;;;31.15;16.20;;;17.30;64.70;;;;;;5047975;28;20105;-66
2022/05/04 08:49:41;;;;;;;31.50;16.70;;;17.30;64.70;;;;;;5029198;28;20105;-66
2022/05/04 08:52:07;;;;;;;30.75;16.30;;;17.30;64.70;;;;;;5031065;28;20025;-66
2022/05/04 08:54:33;;;;;;;32.80;16.17;;;17.30;64.70;;;;;;5032121;28;20500;-66
2022/05/04 08:56:59;;;;;;;32.50;16.13;;;17.30;64.70;;;;;;5030838;28;20041;-66
2022/05/04 08:59:25;;;;;;;28.63;16.15;;;17.30;64.70;;;;;;5014795;28;20021;-66
2022/05/04 09:01:51;;;;;;;31.20;17.05;;;17.30;64.70;;;;;;5032276;28;20605;-66
2022/05/04 09:04:16;;;;;;;29.55;16.45;;;17.20;64.70;;;;;;5032352;28;20026;-66
2022/05/04 09:06:43;;;;;;;33.65;17.63;;;17.20;64.70;;;;;;5031216;28;20040;-66
2022/05/04 09:09:10;;;;;;;30.92;17.33;;;17.20;64.70;;;;;;5030747;28;20033;-66
2022/05/04 09:11:43;;;;;;;32.65;16.83;;;17.20;64.80;;;;;;5032278;28;20419;-66
2022/05/04 09:14:09;;;;;;;;;;;17.20;64.70;;;;;;5032435;28;20024;-66
2022/05/04 09:16:35;;;;;;;29.40;14.85;;;17.20;64.80;;;;;;5032090;28;19909;-66
2022/05/04 09:19:13;;;;;;;30.80;16.92;;;17.10;65.10;;;;;;5032013;28;20036;-66
2022/05/04 09:21:39;;;;;;;30.08;16.00;;;17.20;65.00;;;;;;5030940;28;20049;-66
2022/05/04 09:24:05;;;;;;;24.63;15.20;;;17.10;65.00;;;;;;5030794;28;20053;-66
2022/05/04 09:26:31;;;;;;;30.33;15.43;;;17.20;65.00;;;;;;5031993;28;20080;-66
2022/05/04 09:29:00;;;;;;;25.88;15.02;;;17.10;65.00;;;;;;5035483;28;20036;-66
2022/05/04 09:31:26;;;;;;;28.42;15.70;;;17.20;65.00;;;;;;5034896;28;20468;-66
2022/05/04 09:33:57;;;;;;;23.30;14.25;;;17.20;65.00;;;;;;5034745;28;20116;-66
2022/05/04 09:44:54;;;;;;;23.90;14.50;;;17.20;65.00;;;;;;5034437;28;20491;-66
2022/05/04 09:45:11;;;;;;;23.92;15.27;;;17.20;65.00;;;;;;5034493;28;20071;-66
2022/05/04 09:47:41;;;;;;;26.63;14.73;;;17.20;65.10;;;;;;5035639;28;20104;-66
2022/05/04 09:50:08;;;;;;;23.55;13.60;;;17.20;65.00;;;;;;5035568;28;20048;-66
2022/05/04 09:52:41;;;;;;;23.83;13.43;;;17.20;65.00;;;;;;5034567;28;20040;-66
2022/05/04 09:55:14;;;;;;;;;;;17.20;65.00;;;;;;5034695;28;20037;-66
2022/05/04 09:57:44;;;;;;;21.13;13.27;;;17.10;65.00;;;;;;5033798;28;20015;-66
2022/05/04 10:00:12;;;;;;;22.48;14.15;;;17.10;65.30;;;;;;5018462;28;20499;-66
2022/05/04 10:02:38;;;;;;;19.42;13.00;;;17.10;65.20;;;;;;5035471;28;20108;-66
2022/05/04 10:05:04;;;;;;;22.02;13.52;;;17.10;65.10;;;;;;5034021;28;20599;-66
2022/05/04 10:07:30;;;;;;;20.65;12.68;;;17.10;65.10;;;;;;5035231;28;20155;-66
2022/05/04 10:09:56;;;;;;;23.08;13.15;;;17.10;65.00;;;;;;5035122;28;20400;-66
2022/05/04 10:12:23;;;;;;;22.10;13.13;;;17.10;65.00;;;;;;5033873;28;20033;-66
2022/05/04 10:14:49;;;;;;;20.65;13.00;;;17.10;64.90;;;;;;5017733;28;20017;-66
2022/05/04 10:17:20;;;;;;;21.13;13.23;;;17.10;64.90;;;;;;5017309;28;20052;-66
2022/05/04 10:19:46;;;;;;;21.63;13.23;;;17.20;64.90;;;;;;5035060;28;20503;-66
2022/05/04 10:22:14;;;;;;;21.98;13.05;;;17.10;64.90;;;;;;5034856;28;20029;-66
2022/05/04 10:24:40;;;;;;;18.98;12.57;;;17.10;64.80;;;;;;5034000;28;20010;-66
2022/05/04 10:27:27;;;;;;;17.77;12.38;;;17.10;64.80;;;;;;5016951;28;20486;-66
2022/05/04 10:32:46;;;;;;;21.23;12.80;;;17.10;64.80;;;;;;5034140;28;20083;-66
2022/05/04 10:35:17;;;;;;;17.13;11.60;;;17.10;64.80;;;;;;5033442;28;20435;-66
2022/05/04 10:37:58;;;;;;;20.20;12.60;;;17.10;64.90;;;;;;5034525;28;20033;-66
2022/05/04 10:40:30;;;;;;;21.35;12.63;;;17.20;64.70;;;;;;5033586;28;20018;-66
2022/05/04 10:43:06;;;;;;;16.52;11.27;;;17.10;64.70;;;;;;5034662;28;20034;-66
2022/05/04 10:45:36;;;;;;;17.88;12.23;;;17.20;64.70;;;;;;5033368;28;20105;-66
2022/05/04 10:48:20;;;;;;;18.38;11.73;;;17.10;64.70;;;;;;5034654;28;20021;-66
2022/05/04 10:51:10;;;;;;;17.98;11.85;;;17.10;64.50;;;;;;5034520;28;20029;-66
2022/05/04 10:53:41;;;;;;;17.13;11.93;;;17.10;64.40;;;;;;5027425;28;20030;-66
2022/05/04 10:56:14;;;;;;;16.70;11.77;;;17.10;64.60;;;;;;5032862;28;20017;-66
2022/05/04 10:58:47;;;;;;;15.60;11.30;;;17.10;64.60;;;;;;5031900;28;20026;-66
2022/05/04 11:01:38;;;;;;;15.15;10.98;;;17.10;64.50;;;;;;5014483;28;20021;-66
2022/05/04 11:04:10;;;;;;;16.25;10.93;;;17.20;64.60;;;;;;5013359;28;20022;-66
2022/05/04 11:06:43;;;;;;;14.43;10.38;;;17.10;64.60;;;;;;5014337;28;20080;-66
2022/05/04 11:09:16;;;;;;;14.90;10.85;;;17.10;64.60;;;;;;5014279;28;20100;-66
2022/05/04 11:11:43;;;;;;;16.55;10.93;;;17.20;65.10;;;;;;5013214;28;20026;-66
2022/05/04 11:14:13;;;;;;;19.67;10.65;;;17.10;64.40;;;;;;5013111;28;20041;-66
2022/05/04 11:16:40;;;;;;;16.48;10.55;;;17.10;64.40;;;;;;5013049;28;20021;-66
2022/05/04 11:19:06;;;;;;;14.07;9.60;;;17.10;64.40;;;;;;5014086;28;20021;-66
2022/05/04 11:21:32;;;;;;;15.23;9.95;;;17.10;64.40;;;;;;5014093;28;20026;-66
2022/05/04 11:24:00;;;;;;;15.35;9.65;;;17.10;64.40;;;;;;5012678;28;20026;-66
2022/05/04 11:26:36;;;;;;;13.60;9.32;;;17.20;64.40;;;;;;5013860;28;20018;-66
2022/05/04 11:29:05;;;;;;;14.55;9.32;;;17.10;64.20;;;;;;5013953;28;20420;-66
2022/05/04 11:31:30;;;;;;;12.02;9.25;;;17.10;64.20;;;;;;5012636;28;20118;-66
2022/05/04 11:33:56;;;;;;;14.02;9.93;;;17.20;64.30;;;;;;5013927;28;20115;-66
2022/05/04 11:36:22;;;;;;;13.55;9.18;;;17.20;64.20;;;;;;5027170;28;20066;-66
2022/05/04 11:38:48;;;;;;;14.13;8.93;;;17.20;64.10;;;;;;5033334;28;20116;-66
2022/05/04 11:41:14;;;;;;;13.63;8.85;;;17.20;64.10;;;;;;5032074;28;20120;-66
2022/05/04 11:43:40;;;;;;;9.55;7.55;;;17.20;64.00;;;;;;5033511;28;20026;-66
2022/05/04 11:46:09;;;;;;;10.40;7.90;;;17.20;64.00;;;;;;5032070;28;20024;-66
2022/05/04 11:48:44;;;;;;;10.05;7.53;;;17.20;64.00;;;;;;5032307;28;20030;-66
2022/05/04 11:51:11;;;;;;;9.55;7.18;;;17.10;63.90;;;;;;5031907;28;20026;-66
2022/05/04 11:53:37;;;;;;;10.38;7.10;;;17.20;64.00;;;;;;5031951;28;20227;-66
2022/05/04 11:56:04;;;;;;;8.95;6.78;;;17.20;63.90;;;;;;5031867;28;20021;-66
2022/05/04 11:58:31;;;;;;;11.10;7.53;;;17.10;63.80;;;;;;5031663;28;20032;-66
2022/05/04 12:00:56;;;;;;;8.40;6.68;;;17.20;63.80;;;;;;5033147;28;20028;-66
2022/05/04 12:03:23;;;;;;;9.70;6.82;;;17.20;63.70;;;;;;5033195;28;20100;-66
2022/05/04 12:05:49;;;;;;;9.57;6.18;;;17.20;63.70;;;;;;5032981;28;20021;-66
2022/05/04 12:08:17;;;;;;;10.57;6.32;;;17.20;63.60;;;;;;5015163;28;20067;-66
2022/05/04 12:10:42;;;;;;;7.07;5.80;;;17.20;63.60;;;;;;5015702;28;20022;-66
2022/05/04 12:13:08;;;;;;;7.70;6.00;;;17.20;63.60;;;;;;5032972;28;20159;-66
2022/05/04 12:15:34;;;;;;;6.57;5.07;;;17.20;63.50;;;;;;5032828;28;20025;-66
2022/05/04 12:18:05;;;;;;;6.72;5.45;;;17.20;63.40;;;;;;5031608;28;20424;-66
2022/05/04 12:20:33;;;;;;;6.78;5.40;;;17.20;63.30;;;;;;5032812;28;20025;-66
2022/05/04 12:22:59;;;;;;;6.05;4.85;;;17.20;63.30;;;;;;5015255;28;20037;-66
2022/05/04 12:25:25;;;;;;;5.15;4.65;;;17.20;63.20;;;;;;5015359;28;20064;-66
2022/05/04 12:27:51;;;;;;;7.28;5.22;;;17.20;63.20;;;;;;5015149;28;20099;-66
2022/05/04 12:33:08;;;;;;;5.30;4.47;;;17.20;63.00;;;;;;5032679;28;20117;-66
2022/05/04 12:35:44;;;;;;;5.63;4.40;;;17.20;63.00;;;;;;5031268;28;20017;-66
2022/05/04 12:38:11;;;;;;;5.05;4.32;;;17.20;62.90;;;;;;5031238;28;20013;-66
2022/05/04 12:40:36;;;;;;;4.70;3.90;;;17.20;62.90;;;;;;5031400;28;20100;-66
2022/05/04 12:43:03;;;;;;;4.40;3.55;;;17.20;62.80;;;;;;5032435;28;20025;-66
2022/05/04 12:45:29;;;;;;;3.95;3.55;;;17.20;62.70;;;;;;5031264;28;20464;-66
2022/05/04 12:47:55;;;;;;;3.97;3.58;;;17.20;62.70;;;;;;5031413;28;20056;-66
2022/05/04 12:50:22;;;;;;;4.05;3.38;;;17.20;62.60;;;;;;5031269;28;20029;-66
2022/05/04 12:52:48;;;;;;;4.35;3.60;;;17.20;62.50;;;;;;5031045;28;20165;-66
2022/05/04 12:55:14;;;;;;;3.65;3.28;;;17.30;62.40;;;;;;5031365;28;20439;-66
2022/05/04 12:57:40;;;;;;;4.68;3.72;;;17.30;62.40;;;;;;5032084;28;20029;-66
2022/05/04 13:00:06;;;;;;;6.22;3.17;;;17.30;62.30;;;;;;5032472;28;20025;-66
2022/05/04 13:02:32;;;;;;;3.20;2.90;;;17.30;62.20;;;;;;5034474;28;20014;-66
2022/05/04 13:04:58;;;;;;;5.82;3.63;;;17.30;62.20;;;;;;5037825;28;20021;-66
2022/05/04 13:07:24;;;;;;;4.85;3.30;;;17.30;62.10;;;;;;5038561;28;20387;-66
2022/05/04 13:09:49;;;;;;;3.35;2.97;;;17.30;62.10;;;;;;5038862;28;20033;-66